createdAt,value
2018-04-02T00:00:36.664Z,9.30
2018-04-02T00:03:06.592Z,9.60
2018-04-02T00:05:36.507Z,9.13
2018-04-02T00:08:06.336Z,8.83
2018-04-02T00:10:36.034Z,9.27
2018-04-02T00:13:05.860Z,9.20
2018-04-02T00:15:35.774Z,8.20
2018-04-02T00:18:05.370Z,8.53
2018-04-02T00:20:34.937Z,8.67
2018-04-02T00:23:04.707Z,8.50
2018-04-02T00:25:34.396Z,8.07
2018-04-02T00:28:03.699Z,7.07
2018-04-02T00:30:33.287Z,6.90
2018-04-02T00:33:03.233Z,7.30
2018-04-02T00:35:33.454Z,8.03
2018-04-02T00:38:03.771Z,7.33
2018-04-02T00:40:33.546Z,7.43
2018-04-02T00:43:02.654Z,5.77
2018-04-02T00:45:32.592Z,5.43
2018-04-02T00:48:02.728Z,5.67
2018-04-02T00:50:32.329Z,3.87
2018-04-02T00:53:01.478Z,4.70
2018-04-02T00:55:31.438Z,4.83
2018-04-02T00:58:01.273Z,4.37
2018-04-02T01:00:30.927Z,4.50
2018-04-02T01:03:00.559Z,5.77
2018-04-02T01:05:30.325Z,4.63
2018-04-02T01:07:59.399Z,6.63
2018-04-02T01:10:29.165Z,7.47
2018-04-02T01:12:59.040Z,6.97
2018-04-02T01:15:28.908Z,6.57
2018-04-02T01:17:58.412Z,6.37
2018-04-02T01:20:27.852Z,6.27
2018-04-02T01:22:57.756Z,4.73
2018-04-02T01:25:27.705Z,5.10
2018-04-02T01:27:57.161Z,5.30
2018-04-02T01:30:27.387Z,5.00
2018-04-02T01:32:57.154Z,6.20
2018-04-02T01:35:26.375Z,6.63
2018-04-02T01:37:56.177Z,7.03
2018-04-02T01:40:25.837Z,6.00
2018-04-02T01:42:55.626Z,4.77
2018-04-02T01:45:25.209Z,5.40
2018-04-02T01:47:55.049Z,4.67
2018-04-02T01:50:24.859Z,4.67
2018-04-02T01:52:54.668Z,5.67
2018-04-02T01:55:24.645Z,4.33
2018-04-02T01:57:54.539Z,5.07
2018-04-02T02:00:24.248Z,5.57
2018-04-02T02:02:53.907Z,3.90
2018-04-02T02:05:23.720Z,4.53
2018-04-02T02:07:53.634Z,4.53
2018-04-02T02:10:23.326Z,3.07
2018-04-02T02:12:53.191Z,3.87
2018-04-02T02:15:23.093Z,3.03
2018-04-02T02:17:53.343Z,3.83
2018-04-02T02:20:22.504Z,3.37
2018-04-02T02:22:52.420Z,4.23
2018-04-02T02:25:21.919Z,3.10
2018-04-02T02:27:51.045Z,3.43
2018-04-02T02:30:20.695Z,3.13
2018-04-02T02:32:50.439Z,4.17
2018-04-02T02:35:20.658Z,3.17
2018-04-02T02:37:50.064Z,3.50
2018-04-02T02:40:19.891Z,3.20
2018-04-02T02:42:49.723Z,2.67
2018-04-02T02:45:19.618Z,2.60
2018-04-02T02:47:49.516Z,3.10
2018-04-02T02:50:19.531Z,2.97
2018-04-02T02:52:49.242Z,2.90
2018-04-02T02:55:18.300Z,2.70
2018-04-02T02:57:48.139Z,2.60
2018-04-02T03:00:17.880Z,3.80
2018-04-02T03:02:47.586Z,5.60
2018-04-02T03:05:17.402Z,4.60
2018-04-02T03:07:47.712Z,4.90
2018-04-02T03:10:17.429Z,4.40
2018-04-02T03:12:47.437Z,5.13
2018-04-02T03:15:16.551Z,4.23
2018-04-02T03:17:45.834Z,4.77
2018-04-02T03:20:15.664Z,6.63
2018-04-02T03:22:45.490Z,5.10
2018-04-02T03:25:15.350Z,3.43
2018-04-02T03:27:45.729Z,5.67
2018-04-02T03:30:15.610Z,4.50
2018-04-02T03:32:45.532Z,4.07
2018-04-02T03:35:15.126Z,4.90
2018-04-02T03:37:45.147Z,4.03
2018-04-02T03:40:14.240Z,4.00
2018-04-02T03:42:44.159Z,3.30
2018-04-02T03:45:13.983Z,3.07
2018-04-02T03:47:43.729Z,4.27
2018-04-02T03:50:12.810Z,3.23
2018-04-02T03:52:41.986Z,3.90
2018-04-02T03:55:11.135Z,3.80
2018-04-02T03:57:40.291Z,4.03
2018-04-02T04:00:09.403Z,3.30
2018-04-02T04:02:38.504Z,3.90
2018-04-02T04:05:07.601Z,4.43
2018-04-02T04:07:36.745Z,4.80
2018-04-02T04:10:05.844Z,3.80
2018-04-02T04:12:34.936Z,5.07
2018-04-02T04:15:04.009Z,3.83
2018-04-02T04:17:33.086Z,4.80
2018-04-02T04:20:02.269Z,4.00
2018-04-02T04:22:31.362Z,4.30
2018-04-02T04:25:00.539Z,3.53
2018-04-02T04:27:29.687Z,4.23
2018-04-02T04:29:58.810Z,3.10
2018-04-02T04:32:27.918Z,3.53
2018-04-02T04:34:57.006Z,4.03
2018-04-02T04:37:26.182Z,3.53
2018-04-02T04:39:55.272Z,3.30
2018-04-02T04:42:24.306Z,3.60
2018-04-02T04:44:53.396Z,2.97
2018-04-02T04:47:22.499Z,2.97
2018-04-02T04:49:51.607Z,2.80
2018-04-02T04:52:20.758Z,4.20
2018-04-02T04:54:49.882Z,3.70
2018-04-02T04:57:19.078Z,3.30
2018-04-02T04:59:48.222Z,3.70
2018-04-02T05:02:17.338Z,3.70
2018-04-02T05:04:46.456Z,3.10
2018-04-02T05:07:15.597Z,2.60
2018-04-02T05:09:45.028Z,3.60
2018-04-02T05:12:14.095Z,3.70
2018-04-02T05:14:43.205Z,3.23
2018-04-02T05:17:12.344Z,3.07
2018-04-02T05:19:41.440Z,2.70
2018-04-02T05:22:10.506Z,3.53
2018-04-02T05:24:39.707Z,2.03
2018-04-02T05:27:08.842Z,2.80
2018-04-02T05:29:37.940Z,2.37
2018-04-02T05:32:07.069Z,2.23
2018-04-02T05:34:36.176Z,2.67
2018-04-02T05:37:05.438Z,3.00
2018-04-02T05:39:34.523Z,3.00
2018-04-02T05:42:03.609Z,2.83
2018-04-02T05:44:32.674Z,2.87
2018-04-02T05:47:01.789Z,1.97
2018-04-02T05:49:31.014Z,2.00
2018-04-02T05:52:00.120Z,1.93
2018-04-02T05:54:29.238Z,2.77
2018-04-02T05:56:58.428Z,1.90
2018-04-02T05:59:27.565Z,2.50
2018-04-02T06:01:56.636Z,2.03
2018-04-02T06:04:25.730Z,3.13
2018-04-02T06:06:54.832Z,3.33
2018-04-02T06:09:23.957Z,3.17
2018-04-02T06:11:53.091Z,3.43
2018-04-02T06:14:22.198Z,3.30
2018-04-02T06:16:51.227Z,3.23
2018-04-02T06:19:20.322Z,3.70
2018-04-02T06:21:49.414Z,3.30
2018-04-02T06:24:18.659Z,3.07
2018-04-02T06:26:47.860Z,2.80
2018-04-02T06:29:17.071Z,2.87
2018-04-02T06:31:46.277Z,2.80
2018-04-02T06:34:15.450Z,2.40
2018-04-02T06:36:44.631Z,2.13
2018-04-02T06:39:13.852Z,2.30
2018-04-02T06:41:43.044Z,2.07
2018-04-02T06:44:12.205Z,2.57
2018-04-02T06:46:42.356Z,2.10
2018-04-02T06:49:11.675Z,2.20
2018-04-02T06:51:40.833Z,2.83
2018-04-02T06:54:10.057Z,2.13
2018-04-02T06:56:39.323Z,2.60
2018-04-02T06:59:08.427Z,2.13
2018-04-02T07:01:37.490Z,1.93
2018-04-02T07:04:06.547Z,2.30
2018-04-02T07:06:35.672Z,2.50
2018-04-02T07:09:06.630Z,1.97
2018-04-02T07:11:35.710Z,1.90
2018-04-02T07:14:04.799Z,2.50
2018-04-02T07:16:33.984Z,2.20
2018-04-02T07:19:03.189Z,1.90
2018-04-02T07:21:32.363Z,1.90
2018-04-02T07:24:01.568Z,2.40
2018-04-02T07:26:31.579Z,2.33
2018-04-02T07:29:00.777Z,2.20
2018-04-02T07:31:29.945Z,2.37
2018-04-02T07:33:59.181Z,2.23
2018-04-02T07:36:28.475Z,1.60
2018-04-02T07:38:57.654Z,1.90
2018-04-02T07:41:26.873Z,1.93
2018-04-02T07:43:56.067Z,1.90
2018-04-02T07:46:25.234Z,2.27
2018-04-02T07:48:54.771Z,1.90
2018-04-02T07:51:23.979Z,2.20
2018-04-02T07:53:53.283Z,1.60
2018-04-02T07:56:22.582Z,1.80
2018-04-02T07:58:51.771Z,1.73
2018-04-02T08:01:20.821Z,1.70
2018-04-02T08:03:49.914Z,2.00
2018-04-02T08:06:19.241Z,1.53
2018-04-02T08:08:48.574Z,1.60
2018-04-02T08:11:17.907Z,1.67
2018-04-02T08:13:47.079Z,1.70
2018-04-02T08:16:16.267Z,1.40
2018-04-02T08:18:46.450Z,1.67
2018-04-02T08:21:15.647Z,1.67
2018-04-02T08:23:44.876Z,1.70
2018-04-02T08:26:14.279Z,1.67
2018-04-02T08:28:43.533Z,1.57
2018-04-02T08:31:13.725Z,1.80
2018-04-02T08:33:42.910Z,1.33
2018-04-02T08:36:12.109Z,1.30
2018-04-02T08:38:41.358Z,1.33
2018-04-02T08:41:10.501Z,1.20
2018-04-02T08:43:39.693Z,1.80
2018-04-02T08:46:09.013Z,1.30
2018-04-02T08:48:39.225Z,1.90
2018-04-02T08:51:08.525Z,1.80
2018-04-02T08:53:37.831Z,1.60
2018-04-02T08:56:07.811Z,1.27
2018-04-02T08:58:37.046Z,1.20
2018-04-02T09:01:07.226Z,1.20
2018-04-02T09:03:36.456Z,1.50
2018-04-02T09:06:05.652Z,1.40
2018-04-02T09:08:35.773Z,1.57
2018-04-02T09:11:05.083Z,1.10
2018-04-02T09:13:34.958Z,1.17
2018-04-02T09:16:04.142Z,1.20
2018-04-02T09:18:33.299Z,1.20
2018-04-02T09:21:02.454Z,1.50
2018-04-02T09:23:31.679Z,1.00
2018-04-02T09:26:01.589Z,1.23
2018-04-02T09:28:30.792Z,1.20
2018-04-02T09:30:59.999Z,1.00
2018-04-02T09:33:29.307Z,1.00
2018-04-02T09:35:58.591Z,1.20
2018-04-02T09:38:27.900Z,1.30
2018-04-02T09:40:57.086Z,1.30
2018-04-02T09:43:26.243Z,1.00
2018-04-02T09:45:55.386Z,1.10
2018-04-02T09:48:24.484Z,1.17
2018-04-02T09:50:53.646Z,1.40
2018-04-02T09:53:22.830Z,1.43
2018-04-02T09:55:51.976Z,1.00
2018-04-02T09:58:21.175Z,0.90
2018-04-02T10:00:50.580Z,1.10
2018-04-02T10:03:19.740Z,1.03
2018-04-02T10:05:48.928Z,1.10
2018-04-02T10:08:18.062Z,1.00
2018-04-02T10:10:47.373Z,0.80
2018-04-02T10:13:16.559Z,1.00
2018-04-02T10:15:45.760Z,1.10
2018-04-02T10:18:15.068Z,0.80
2018-04-02T10:20:44.269Z,0.90
2018-04-02T10:23:13.461Z,0.93
2018-04-02T10:25:44.189Z,0.93
2018-04-02T10:28:13.387Z,1.20
2018-04-02T10:30:44.282Z,1.00
2018-04-02T10:33:13.388Z,1.10
2018-04-02T10:35:43.440Z,1.27
2018-04-02T10:38:12.753Z,0.90
2018-04-02T10:40:41.948Z,1.10
2018-04-02T10:43:11.134Z,1.03
2018-04-02T10:45:40.296Z,1.50
2018-04-02T10:48:09.401Z,1.00
2018-04-02T10:50:38.510Z,1.10
2018-04-02T10:53:07.801Z,1.10
2018-04-02T10:55:37.007Z,1.10
2018-04-02T10:58:06.222Z,1.23
2018-04-02T11:00:35.384Z,1.20
2018-04-02T11:03:04.519Z,1.00
2018-04-02T11:05:33.789Z,1.13
2018-04-02T11:08:03.024Z,1.30
2018-04-02T11:10:32.225Z,1.40
2018-04-02T11:13:01.412Z,1.33
2018-04-02T11:15:30.634Z,1.40
2018-04-02T11:17:59.917Z,1.20
2018-04-02T11:20:29.214Z,1.30
2018-04-02T11:22:58.409Z,1.40
2018-04-02T11:25:27.619Z,1.27
2018-04-02T11:27:56.765Z,1.43
2018-04-02T11:30:25.907Z,1.13
2018-04-02T11:32:55.106Z,1.33
2018-04-02T11:35:24.316Z,1.27
2018-04-02T11:37:53.566Z,1.23
2018-04-02T11:40:22.804Z,1.27
2018-04-02T11:42:52.038Z,1.07
2018-04-02T11:45:21.201Z,1.30
2018-04-02T11:47:50.611Z,1.17
2018-04-02T11:50:20.427Z,1.37
2018-04-02T11:52:49.561Z,1.20
2018-04-02T11:55:18.824Z,1.23
2018-04-02T11:57:48.104Z,1.50
2018-04-02T12:00:17.267Z,1.83
2018-04-02T12:02:46.403Z,1.27
2018-04-02T12:05:15.601Z,1.47
2018-04-02T12:07:44.807Z,1.40
2018-04-02T12:10:14.006Z,1.23
2018-04-02T12:12:43.158Z,1.30
2018-04-02T12:15:12.400Z,1.40
2018-04-02T12:17:41.699Z,1.10
2018-04-02T12:20:10.892Z,1.40
2018-04-02T12:22:40.087Z,0.90
2018-04-02T12:25:09.183Z,1.30
2018-04-02T12:27:38.381Z,1.30
2018-04-02T12:30:07.692Z,1.60
2018-04-02T12:32:36.885Z,1.70
2018-04-02T12:35:06.196Z,1.70
2018-04-02T12:37:35.404Z,1.27
2018-04-02T12:40:04.586Z,1.00
2018-04-02T12:42:33.781Z,1.00
2018-04-02T12:45:02.984Z,1.07
2018-04-02T12:47:32.237Z,1.10
2018-04-02T12:50:01.331Z,0.90
2018-04-02T12:52:30.570Z,0.97
2018-04-02T12:54:59.785Z,1.00
2018-04-02T12:57:28.941Z,1.13
2018-04-02T12:59:58.180Z,1.00
2018-04-02T13:02:27.678Z,1.10
2018-04-02T13:04:56.868Z,1.10
2018-04-02T13:07:26.074Z,1.20
2018-04-02T13:09:55.372Z,1.20
2018-04-02T13:12:25.077Z,1.23
2018-04-02T13:14:54.271Z,1.40
2018-04-02T13:17:23.477Z,1.27
2018-04-02T13:19:52.650Z,1.17
2018-04-02T13:22:21.874Z,1.30
2018-04-02T13:24:51.074Z,1.37
2018-04-02T13:27:20.472Z,1.00
2018-04-02T13:29:49.677Z,1.03
2018-04-02T13:32:19.938Z,1.10
2018-04-02T13:34:49.089Z,1.00
2018-04-02T13:37:18.302Z,0.93
2018-04-02T13:39:47.388Z,1.10
2018-04-02T13:42:16.586Z,1.10
2018-04-02T13:44:45.783Z,0.90
2018-04-02T13:47:15.957Z,1.10
2018-04-02T13:49:45.203Z,1.10
2018-04-02T13:52:14.397Z,0.87
2018-04-02T13:54:43.597Z,1.23
2018-04-02T13:57:12.800Z,0.70
2018-04-02T13:59:42.011Z,0.80
2018-04-02T14:02:11.190Z,0.70
2018-04-02T14:04:40.390Z,0.90
2018-04-02T14:07:09.577Z,0.80
2018-04-02T14:09:38.768Z,1.07
2018-04-02T14:12:08.003Z,0.80
2018-04-02T14:14:37.149Z,0.97
2018-04-02T14:17:06.494Z,0.60
2018-04-02T14:19:35.662Z,0.87
2018-04-02T14:22:04.784Z,0.80
2018-04-02T14:24:34.896Z,0.70
2018-04-02T14:27:04.410Z,0.93
2018-04-02T14:29:33.620Z,0.93
2018-04-02T14:32:02.799Z,0.80
2018-04-02T14:34:31.946Z,1.00
2018-04-02T14:37:01.020Z,0.90
2018-04-02T14:39:30.356Z,1.10
2018-04-02T14:41:59.457Z,1.00
2018-04-02T14:44:28.555Z,0.80
2018-04-02T14:46:57.805Z,1.10
2018-04-02T14:49:27.097Z,1.03
2018-04-02T14:51:56.254Z,1.10
2018-04-02T14:54:25.532Z,1.00
2018-04-02T14:56:54.640Z,0.93
2018-04-02T14:59:23.750Z,1.03
2018-04-02T15:01:52.972Z,1.00
2018-04-02T15:04:22.208Z,0.93
2018-04-02T15:06:51.381Z,0.90
2018-04-02T15:09:20.546Z,1.20
2018-04-02T15:11:49.773Z,0.90
2018-04-02T15:14:18.926Z,1.07
2018-04-02T15:16:48.184Z,0.93
2018-04-02T15:19:18.300Z,0.80
2018-04-02T15:21:47.484Z,1.17
2018-04-02T15:24:16.678Z,0.77
2018-04-02T15:26:45.833Z,1.00
2018-04-02T15:29:15.040Z,0.97
2018-04-02T15:31:44.281Z,0.80
2018-04-02T15:34:13.441Z,1.00
2018-04-02T15:36:42.679Z,1.10
2018-04-02T15:39:11.887Z,0.80
2018-04-02T15:41:41.067Z,0.90
2018-04-02T15:44:10.269Z,0.93
2018-04-02T15:46:39.359Z,1.00
2018-04-02T15:49:08.580Z,0.90
2018-04-02T15:51:37.726Z,0.93
2018-04-02T15:54:07.059Z,1.10
2018-04-02T15:56:36.258Z,0.90
2018-04-02T15:59:05.570Z,0.90
2018-04-02T16:01:34.729Z,1.17
2018-04-02T16:04:03.954Z,1.00
2018-04-02T16:06:33.129Z,1.10
2018-04-02T16:09:02.357Z,0.90
2018-04-02T16:11:31.549Z,1.20
2018-04-02T16:14:00.705Z,1.10
2018-04-02T16:16:29.956Z,1.30
2018-04-02T16:18:59.243Z,1.00
2018-04-02T16:21:28.419Z,1.27
2018-04-02T16:23:57.650Z,1.20
2018-04-02T16:26:26.871Z,1.30
2018-04-02T16:28:56.037Z,1.47
2018-04-02T16:31:25.211Z,1.50
2018-04-02T16:33:54.436Z,1.33
2018-04-02T16:36:23.637Z,1.30
2018-04-02T16:38:52.840Z,1.30
2018-04-02T16:41:21.894Z,1.60
2018-04-02T16:43:50.944Z,1.37
2018-04-02T16:46:19.999Z,1.43
2018-04-02T16:48:49.117Z,1.47
2018-04-02T16:51:18.289Z,1.17
2018-04-02T16:53:47.432Z,1.20
2018-04-02T16:56:16.604Z,1.63
2018-04-02T16:58:45.923Z,1.60
2018-04-02T17:01:15.059Z,1.77
2018-04-02T17:03:44.203Z,1.43
2018-04-02T17:06:13.444Z,1.40
2018-04-02T17:08:42.702Z,1.87
2018-04-02T17:11:11.908Z,1.60
2018-04-02T17:13:41.051Z,1.20
2018-04-02T17:16:10.160Z,1.50
2018-04-02T17:18:39.403Z,2.00
2018-04-02T17:21:08.658Z,2.17
2018-04-02T17:23:38.468Z,1.97
2018-04-02T17:26:07.709Z,1.97
2018-04-02T17:28:36.911Z,1.63
2018-04-02T17:31:06.925Z,2.00
2018-04-02T17:33:36.114Z,1.70
2018-04-02T17:36:05.322Z,1.70
2018-04-02T17:38:34.716Z,2.67
2018-04-02T17:41:04.633Z,2.50
2018-04-02T17:43:33.828Z,2.70
2018-04-02T17:46:03.027Z,3.30
2018-04-02T17:48:32.277Z,4.37
2018-04-02T17:51:01.507Z,5.43
2018-04-02T17:53:30.730Z,5.63
2018-04-02T17:55:59.989Z,6.03
2018-04-02T17:58:29.241Z,6.20
2018-04-02T18:00:58.379Z,5.37
2018-04-02T18:03:27.518Z,4.67
2018-04-02T18:05:56.726Z,3.27
2018-04-02T18:08:26.016Z,2.93
2018-04-02T18:10:55.273Z,2.53
2018-04-02T18:13:24.375Z,2.27
2018-04-02T18:15:53.618Z,2.17
2018-04-02T18:18:22.790Z,2.20
2018-04-02T18:20:52.531Z,2.97
2018-04-02T18:23:21.671Z,2.60
2018-04-02T18:25:50.783Z,2.20
2018-04-02T18:28:19.912Z,2.10
2018-04-02T18:30:49.073Z,2.10
2018-04-02T18:33:18.305Z,2.10
2018-04-02T18:35:47.490Z,2.10
2018-04-02T18:38:16.824Z,2.17
2018-04-02T18:40:46.078Z,2.43
2018-04-02T18:43:15.317Z,2.23
2018-04-02T18:45:44.500Z,2.60
2018-04-02T18:48:13.717Z,2.53
2018-04-02T18:50:42.902Z,2.93
2018-04-02T18:53:12.187Z,2.73
2018-04-02T18:55:41.523Z,3.60
2018-04-02T18:58:10.735Z,3.70
2018-04-02T19:00:39.887Z,3.13
2018-04-02T19:03:08.986Z,3.00
2018-04-02T19:05:38.210Z,2.83
2018-04-02T19:08:07.347Z,3.13
2018-04-02T19:10:36.588Z,3.53
2018-04-02T19:13:06.627Z,3.40
2018-04-02T19:15:35.767Z,3.33
2018-04-02T19:18:04.873Z,3.37
2018-04-02T19:20:33.993Z,3.10
2018-04-02T19:23:03.111Z,3.43
2018-04-02T19:25:32.287Z,3.30
2018-04-02T19:28:01.508Z,3.13
2018-04-02T19:30:30.675Z,3.20
2018-04-02T19:32:59.895Z,3.83
2018-04-02T19:35:29.087Z,3.70
2018-04-02T19:37:58.332Z,3.43
2018-04-02T19:40:27.489Z,5.17
2018-04-02T19:42:56.610Z,5.97
2018-04-02T19:45:25.692Z,6.80
2018-04-02T19:47:54.835Z,6.93
2018-04-02T19:50:24.085Z,8.73
2018-04-02T19:52:53.212Z,9.23
2018-04-02T19:55:22.337Z,11.93
2018-04-02T19:57:51.477Z,11.33
2018-04-02T20:00:20.588Z,12.23
2018-04-02T20:02:49.656Z,9.13
2018-04-02T20:05:18.778Z,6.43
2018-04-02T20:07:47.941Z,6.17
2018-04-02T20:10:17.127Z,6.17
2018-04-02T20:12:46.308Z,6.67
2018-04-02T20:15:15.389Z,5.73
2018-04-02T20:17:44.485Z,5.33
2018-04-02T20:20:13.741Z,6.23
2018-04-02T20:22:42.844Z,6.33
2018-04-02T20:25:12.039Z,5.23
2018-04-02T20:27:41.153Z,5.50
2018-04-02T20:30:10.320Z,5.27
2018-04-02T20:32:39.513Z,5.33
2018-04-02T20:35:08.631Z,5.10
2018-04-02T20:37:37.804Z,6.10
2018-04-02T20:40:06.907Z,5.73
2018-04-02T20:42:35.949Z,5.40
2018-04-02T20:45:05.066Z,5.43
2018-04-02T20:47:34.309Z,6.23
2018-04-02T20:50:03.459Z,8.73
2018-04-02T20:52:32.623Z,9.10
2018-04-02T20:55:01.800Z,8.70
2018-04-02T20:57:30.913Z,7.40
2018-04-02T21:00:00.138Z,7.33
2018-04-02T21:02:29.220Z,6.63
2018-04-02T21:04:58.395Z,7.00
2018-04-02T21:07:27.574Z,6.10
2018-04-02T21:09:56.764Z,6.33
2018-04-02T21:12:25.912Z,5.77
2018-04-02T21:14:55.000Z,4.23
2018-04-02T21:17:24.188Z,4.50
2018-04-02T21:19:53.406Z,4.53
2018-04-02T21:22:22.500Z,4.63
2018-04-02T21:24:51.712Z,5.07
2018-04-02T21:27:20.875Z,4.50
2018-04-02T21:29:50.005Z,4.30
2018-04-02T21:32:19.092Z,3.93
2018-04-02T21:34:48.250Z,4.40
2018-04-02T21:37:17.346Z,3.97
2018-04-02T21:39:46.531Z,4.23
2018-04-02T21:42:15.636Z,4.27
2018-04-02T21:44:44.727Z,4.40
2018-04-02T21:47:13.845Z,4.80
2018-04-02T21:49:42.956Z,5.20
2018-04-02T21:52:12.082Z,5.47
2018-04-02T21:54:41.191Z,5.20
2018-04-02T21:57:10.320Z,5.00
2018-04-02T21:59:39.425Z,5.00
2018-04-02T22:02:08.508Z,4.97
2018-04-02T22:04:37.666Z,4.83
2018-04-02T22:07:06.891Z,4.90
2018-04-02T22:09:36.023Z,4.30
2018-04-02T22:12:05.165Z,4.43
2018-04-02T22:14:34.223Z,5.00
2018-04-02T22:17:03.346Z,4.40
2018-04-02T22:19:32.446Z,4.60
2018-04-02T22:22:01.553Z,4.20
2018-04-02T22:24:30.598Z,4.93
2018-04-02T22:26:59.700Z,4.67
2018-04-02T22:29:28.860Z,4.30
2018-04-02T22:31:58.056Z,4.90
2018-04-02T22:34:27.176Z,4.57
2018-04-02T22:36:56.313Z,4.87
2018-04-02T22:39:25.451Z,4.87
2018-04-02T22:41:54.642Z,5.60
2018-04-02T22:44:23.699Z,5.10
2018-04-02T22:46:52.790Z,5.00
2018-04-02T22:49:21.948Z,4.50
2018-04-02T22:51:51.135Z,4.80
2018-04-02T22:54:20.199Z,4.90
2018-04-02T22:56:49.308Z,5.10
2018-04-02T22:59:18.440Z,4.80
2018-04-02T23:01:47.490Z,5.27
2018-04-02T23:04:16.633Z,4.93
2018-04-02T23:06:45.733Z,5.03
2018-04-02T23:09:14.866Z,6.30
2018-04-02T23:11:43.942Z,5.70
2018-04-02T23:14:13.142Z,5.30
2018-04-02T23:16:42.256Z,6.17
2018-04-02T23:19:11.375Z,5.80
2018-04-02T23:21:40.427Z,5.87
2018-04-02T23:24:09.514Z,5.90
2018-04-02T23:26:38.597Z,5.27
2018-04-02T23:29:07.762Z,5.47
2018-04-02T23:31:36.914Z,5.17
2018-04-02T23:34:06.042Z,6.03
2018-04-02T23:36:35.194Z,5.80
2018-04-02T23:39:04.402Z,5.47
2018-04-02T23:41:33.435Z,5.60
2018-04-02T23:44:02.601Z,6.17
2018-04-02T23:46:31.734Z,6.50
2018-04-02T23:49:00.842Z,6.00
2018-04-02T23:51:29.965Z,5.47
2018-04-02T23:53:59.063Z,5.57
2018-04-02T23:56:28.198Z,5.77
2018-04-02T23:58:57.448Z,5.43
